sensor_id;sensor_type;location;lat;lon;timestamp;pressure;altitude;pressure_sealevel;temperature;humidity
48888;BME280;42598;53.802;-1.632;2023-02-17T00:01:26;100380.40;;;8.99;100.00
48888;BME280;42598;53.802;-1.632;2023-02-17T00:03:54;100394.09;;;8.35;100.00
48888;BME280;42598;53.802;-1.632;2023-02-17T00:06:24;100388.02;;;8.90;100.00
48888;BME280;42598;53.802;-1.632;2023-02-17T00:08:52;100388.52;;;8.72;100.00
48888;BME280;42598;53.802;-1.632;2023-02-17T00:11:20;100390.17;;;8.10;100.00
48888;BME280;42598;53.802;-1.632;2023-02-17T00:13:47;100389.52;;;8.01;100.00
48888;BME280;42598;53.802;-1.632;2023-02-17T00:16:17;100376.25;;;8.60;100.00
48888;BME280;42598;53.802;-1.632;2023-02-17T00:18:44;100375.69;;;8.90;100.00
48888;BME280;42598;53.802;-1.632;2023-02-17T00:21:13;100379.18;;;8.65;100.00
48888;BME280;42598;53.802;-1.632;2023-02-17T00:23:40;100373.61;;;9.10;100.00
48888;BME280;42598;53.802;-1.632;2023-02-17T00:26:08;100378.17;;;8.56;100.00
48888;BME280;42598;53.802;-1.632;2023-02-17T00:28:35;100379.65;;;8.28;100.00
48888;BME280;42598;53.802;-1.632;2023-02-17T00:31:07;100370.63;;;8.92;100.00
48888;BME280;42598;53.802;-1.632;2023-02-17T00:33:35;100361.74;;;8.94;100.00
48888;BME280;42598;53.802;-1.632;2023-02-17T00:36:04;100371.43;;;8.66;100.00
48888;BME280;42598;53.802;-1.632;2023-02-17T00:38:31;100377.69;;;8.63;100.00
48888;BME280;42598;53.802;-1.632;2023-02-17T00:40:59;100375.27;;;9.09;100.00
48888;BME280;42598;53.802;-1.632;2023-02-17T00:43:26;100381.91;;;8.69;100.00
48888;BME280;42598;53.802;-1.632;2023-02-17T00:45:53;100389.20;;;8.85;100.00
48888;BME280;42598;53.802;-1.632;2023-02-17T00:48:21;100384.72;;;9.23;100.00
48888;BME280;42598;53.802;-1.632;2023-02-17T00:50:49;100375.49;;;8.50;100.00
48888;BME280;42598;53.802;-1.632;2023-02-17T00:53:16;100377.45;;;9.06;100.00
48888;BME280;42598;53.802;-1.632;2023-02-17T00:55:44;100374.26;;;8.73;100.00
48888;BME280;42598;53.802;-1.632;2023-02-17T00:58:11;100370.77;;;8.82;100.00
48888;BME280;42598;53.802;-1.632;2023-02-17T01:00:38;100363.62;;;8.92;100.00
48888;BME280;42598;53.802;-1.632;2023-02-17T01:03:06;100351.67;;;9.15;100.00
48888;BME280;42598;53.802;-1.632;2023-02-17T01:05:39;100340.59;;;9.07;100.00
48888;BME280;42598;53.802;-1.632;2023-02-17T01:08:07;100335.50;;;9.28;100.00
48888;BME280;42598;53.802;-1.632;2023-02-17T01:10:36;100330.31;;;9.00;100.00
48888;BME280;42598;53.802;-1.632;2023-02-17T01:13:03;100326.87;;;8.87;100.00
48888;BME280;42598;53.802;-1.632;2023-02-17T01:15:30;100324.73;;;9.24;100.00
48888;BME280;42598;53.802;-1.632;2023-02-17T01:17:58;100329.83;;;9.35;100.00
48888;BME280;42598;53.802;-1.632;2023-02-17T01:20:25;100340.41;;;8.75;100.00
48888;BME280;42598;53.802;-1.632;2023-02-17T01:22:52;100338.11;;;8.99;100.00
48888;BME280;42598;53.802;-1.632;2023-02-17T01:25:19;100339.80;;;8.46;100.00
48888;BME280;42598;53.802;-1.632;2023-02-17T01:27:46;100332.25;;;8.95;100.00
48888;BME280;42598;53.802;-1.632;2023-02-17T01:30:13;100328.76;;;9.10;100.00
48888;BME280;42598;53.802;-1.632;2023-02-17T01:32:41;100324.80;;;9.17;100.00
48888;BME280;42598;53.802;-1.632;2023-02-17T01:35:08;100323.98;;;8.68;100.00
48888;BME280;42598;53.802;-1.632;2023-02-17T01:37:35;100314.80;;;8.83;100.00
48888;BME280;42598;53.802;-1.632;2023-02-17T01:40:02;100320.51;;;8.70;100.00
48888;BME280;42598;53.802;-1.632;2023-02-17T01:42:30;100322.21;;;9.04;100.00
48888;BME280;42598;53.802;-1.632;2023-02-17T01:46:04;100318.44;;;8.64;100.00
48888;BME280;42598;53.802;-1.632;2023-02-17T01:48:34;100299.29;;;8.74;100.00
48888;BME280;42598;53.802;-1.632;2023-02-17T01:51:05;100302.19;;;8.48;100.00
48888;BME280;42598;53.802;-1.632;2023-02-17T01:53:36;100288.59;;;8.62;100.00
48888;BME280;42598;53.802;-1.632;2023-02-17T01:56:06;100275.05;;;7.92;100.00
48888;BME280;42598;53.802;-1.632;2023-02-17T01:58:34;100276.67;;;8.38;100.00
48888;BME280;42598;53.802;-1.632;2023-02-17T02:01:03;100278.10;;;8.80;100.00
48888;BME280;42598;53.802;-1.632;2023-02-17T02:03:32;100279.18;;;8.08;100.00
48888;BME280;42598;53.802;-1.632;2023-02-17T02:06:04;100254.87;;;8.24;100.00
48888;BME280;42598;53.802;-1.632;2023-02-17T02:08:38;100241.67;;;8.47;100.00
48888;BME280;42598;53.802;-1.632;2023-02-17T02:11:08;100235.61;;;8.39;100.00
48888;BME280;42598;53.802;-1.632;2023-02-17T02:13:36;100255.43;;;8.65;100.00
48888;BME280;42598;53.802;-1.632;2023-02-17T02:16:08;100227.66;;;8.71;100.00
48888;BME280;42598;53.802;-1.632;2023-02-17T02:18:47;100232.10;;;8.15;100.00
48888;BME280;42598;53.802;-1.632;2023-02-17T02:21:39;100214.17;;;8.26;100.00
48888;BME280;42598;53.802;-1.632;2023-02-17T02:24:22;100219.74;;;8.46;100.00
48888;BME280;42598;53.802;-1.632;2023-02-17T02:27:16;100220.18;;;8.40;100.00
48888;BME280;42598;53.802;-1.632;2023-02-17T02:29:59;100217.56;;;8.02;100.00
48888;BME280;42598;53.802;-1.632;2023-02-17T02:32:46;100228.09;;;8.22;100.00
48888;BME280;42598;53.802;-1.632;2023-02-17T02:35:20;100221.63;;;8.76;100.00
48888;BME280;42598;53.802;-1.632;2023-02-17T02:37:54;100227.83;;;8.37;100.00
48888;BME280;42598;53.802;-1.632;2023-02-17T02:40:27;100220.75;;;8.68;100.00
48888;BME280;42598;53.802;-1.632;2023-02-17T02:42:59;100227.06;;;8.79;100.00
48888;BME280;42598;53.802;-1.632;2023-02-17T02:45:27;100240.30;;;8.82;100.00
48888;BME280;42598;53.802;-1.632;2023-02-17T02:47:56;100241.91;;;8.64;100.00
48888;BME280;42598;53.802;-1.632;2023-02-17T02:50:30;100241.38;;;8.73;100.00
48888;BME280;42598;53.802;-1.632;2023-02-17T02:53:14;100250.86;;;8.40;100.00
48888;BME280;42598;53.802;-1.632;2023-02-17T02:55:51;100226.39;;;8.51;100.00
48888;BME280;42598;53.802;-1.632;2023-02-17T02:58:21;100233.20;;;8.28;100.00
48888;BME280;42598;53.802;-1.632;2023-02-17T03:00:57;100213.46;;;8.57;100.00
48888;BME280;42598;53.802;-1.632;2023-02-17T03:03:29;100203.36;;;8.39;100.00
48888;BME280;42598;53.802;-1.632;2023-02-17T03:06:04;100204.63;;;8.26;100.00
48888;BME280;42598;53.802;-1.632;2023-02-17T03:08:36;100199.89;;;8.46;100.00
48888;BME280;42598;53.802;-1.632;2023-02-17T03:11:04;100191.24;;;8.97;100.00
48888;BME280;42598;53.802;-1.632;2023-02-17T03:13:32;100186.93;;;8.67;100.00
48888;BME280;42598;53.802;-1.632;2023-02-17T03:16:00;100181.32;;;8.77;100.00
48888;BME280;42598;53.802;-1.632;2023-02-17T03:18:31;100174.85;;;8.89;100.00
48888;BME280;42598;53.802;-1.632;2023-02-17T03:21:03;100174.29;;;8.53;100.00
48888;BME280;42598;53.802;-1.632;2023-02-17T03:23:32;100163.51;;;9.30;100.00
48888;BME280;42598;53.802;-1.632;2023-02-17T03:25:59;100162.11;;;9.08;100.00
48888;BME280;42598;53.802;-1.632;2023-02-17T03:28:26;100160.02;;;8.96;100.00
48888;BME280;42598;53.802;-1.632;2023-02-17T03:30:53;100160.52;;;9.10;100.00
48888;BME280;42598;53.802;-1.632;2023-02-17T03:33:20;100143.07;;;9.26;100.00
48888;BME280;42598;53.802;-1.632;2023-02-17T03:35:48;100136.60;;;8.88;100.00
48888;BME280;42598;53.802;-1.632;2023-02-17T03:38:14;100124.78;;;9.24;100.00
48888;BME280;42598;53.802;-1.632;2023-02-17T03:40:41;100123.20;;;8.65;100.00
48888;BME280;42598;53.802;-1.632;2023-02-17T03:43:08;100134.35;;;8.98;100.00
48888;BME280;42598;53.802;-1.632;2023-02-17T03:45:36;100122.64;;;9.29;100.00
48888;BME280;42598;53.802;-1.632;2023-02-17T03:48:03;100108.33;;;9.11;100.00
48888;BME280;42598;53.802;-1.632;2023-02-17T03:50:30;100105.68;;;8.73;100.00
48888;BME280;42598;53.802;-1.632;2023-02-17T03:52:57;100122.93;;;8.93;100.00
48888;BME280;42598;53.802;-1.632;2023-02-17T03:55:24;100101.45;;;8.54;100.00
48888;BME280;42598;53.802;-1.632;2023-02-17T03:57:51;100121.43;;;8.66;100.00
48888;BME280;42598;53.802;-1.632;2023-02-17T04:00:18;100082.73;;;8.26;100.00
48888;BME280;42598;53.802;-1.632;2023-02-17T04:02:45;100085.69;;;8.62;100.00
48888;BME280;42598;53.802;-1.632;2023-02-17T04:05:12;100075.83;;;8.99;100.00
48888;BME280;42598;53.802;-1.632;2023-02-17T04:07:39;100089.71;;;8.93;100.00
48888;BME280;42598;53.802;-1.632;2023-02-17T04:10:06;100077.41;;;8.52;100.00
48888;BME280;42598;53.802;-1.632;2023-02-17T04:12:34;100062.41;;;8.53;100.00
48888;BME280;42598;53.802;-1.632;2023-02-17T04:15:01;100042.62;;;8.95;100.00
48888;BME280;42598;53.802;-1.632;2023-02-17T04:17:29;100047.53;;;8.87;100.00
48888;BME280;42598;53.802;-1.632;2023-02-17T04:19:55;100038.16;;;8.64;100.00
48888;BME280;42598;53.802;-1.632;2023-02-17T04:22:23;100046.37;;;8.44;100.00
48888;BME280;42598;53.802;-1.632;2023-02-17T04:24:50;100043.73;;;9.02;100.00
48888;BME280;42598;53.802;-1.632;2023-02-17T04:27:17;100060.16;;;8.80;100.00
48888;BME280;42598;53.802;-1.632;2023-02-17T04:29:44;100031.49;;;8.70;100.00
48888;BME280;42598;53.802;-1.632;2023-02-17T04:32:11;100018.77;;;8.80;100.00
48888;BME280;42598;53.802;-1.632;2023-02-17T04:34:38;100017.59;;;8.56;100.00
48888;BME280;42598;53.802;-1.632;2023-02-17T04:37:06;100020.89;;;8.54;100.00
48888;BME280;42598;53.802;-1.632;2023-02-17T04:39:33;100011.02;;;8.50;100.00
48888;BME280;42598;53.802;-1.632;2023-02-17T04:42:00;99992.55;;;8.70;100.00
48888;BME280;42598;53.802;-1.632;2023-02-17T04:44:27;100009.30;;;9.08;100.00
48888;BME280;42598;53.802;-1.632;2023-02-17T04:46:54;99994.32;;;8.34;100.00
48888;BME280;42598;53.802;-1.632;2023-02-17T04:49:21;99988.10;;;8.39;100.00
48888;BME280;42598;53.802;-1.632;2023-02-17T04:51:48;99995.63;;;8.00;100.00
48888;BME280;42598;53.802;-1.632;2023-02-17T04:54:15;99983.16;;;8.44;100.00
48888;BME280;42598;53.802;-1.632;2023-02-17T04:56:42;99984.55;;;8.58;100.00
48888;BME280;42598;53.802;-1.632;2023-02-17T04:59:08;100002.39;;;8.54;100.00
48888;BME280;42598;53.802;-1.632;2023-02-17T05:01:35;100009.19;;;8.60;100.00
48888;BME280;42598;53.802;-1.632;2023-02-17T05:04:03;99985.40;;;8.49;100.00
48888;BME280;42598;53.802;-1.632;2023-02-17T05:06:30;99990.89;;;8.50;100.00
48888;BME280;42598;53.802;-1.632;2023-02-17T05:08:57;99994.17;;;8.55;100.00
48888;BME280;42598;53.802;-1.632;2023-02-17T05:11:24;100037.04;;;8.75;100.00
48888;BME280;42598;53.802;-1.632;2023-02-17T05:13:51;100016.89;;;8.38;100.00
48888;BME280;42598;53.802;-1.632;2023-02-17T05:16:18;100044.89;;;8.45;100.00
48888;BME280;42598;53.802;-1.632;2023-02-17T05:18:50;100027.11;;;8.28;100.00
48888;BME280;42598;53.802;-1.632;2023-02-17T05:21:18;100025.69;;;8.52;100.00
48888;BME280;42598;53.802;-1.632;2023-02-17T05:23:45;100040.15;;;8.48;100.00
48888;BME280;42598;53.802;-1.632;2023-02-17T05:26:11;100063.83;;;8.66;100.00
48888;BME280;42598;53.802;-1.632;2023-02-17T05:28:38;100037.42;;;8.38;100.00
48888;BME280;42598;53.802;-1.632;2023-02-17T05:31:05;100044.67;;;8.76;100.00
48888;BME280;42598;53.802;-1.632;2023-02-17T05:33:32;100032.21;;;8.46;100.00
48888;BME280;42598;53.802;-1.632;2023-02-17T05:36:01;100044.81;;;8.84;100.00
48888;BME280;42598;53.802;-1.632;2023-02-17T05:38:28;100025.72;;;8.56;100.00
48888;BME280;42598;53.802;-1.632;2023-02-17T05:40:56;100028.42;;;8.37;100.00
48888;BME280;42598;53.802;-1.632;2023-02-17T05:43:24;100018.97;;;8.09;100.00
48888;BME280;42598;53.802;-1.632;2023-02-17T05:45:50;99988.40;;;8.20;100.00
48888;BME280;42598;53.802;-1.632;2023-02-17T05:48:17;100003.73;;;8.07;100.00
48888;BME280;42598;53.802;-1.632;2023-02-17T05:50:45;100021.78;;;7.85;100.00
48888;BME280;42598;53.802;-1.632;2023-02-17T05:53:17;100003.10;;;8.20;100.00
48888;BME280;42598;53.802;-1.632;2023-02-17T05:55:44;100003.93;;;7.92;100.00
48888;BME280;42598;53.802;-1.632;2023-02-17T05:58:11;100023.17;;;8.13;100.00
48888;BME280;42598;53.802;-1.632;2023-02-17T06:00:38;100013.73;;;8.06;100.00
48888;BME280;42598;53.802;-1.632;2023-02-17T06:03:05;100007.85;;;8.04;100.00
48888;BME280;42598;53.802;-1.632;2023-02-17T06:05:32;99999.27;;;8.12;100.00
48888;BME280;42598;53.802;-1.632;2023-02-17T06:07:58;100019.56;;;8.08;100.00
48888;BME280;42598;53.802;-1.632;2023-02-17T06:10:25;100003.19;;;8.19;100.00
48888;BME280;42598;53.802;-1.632;2023-02-17T06:12:52;100001.27;;;8.08;100.00
48888;BME280;42598;53.802;-1.632;2023-02-17T06:15:19;100003.87;;;8.19;100.00
48888;BME280;42598;53.802;-1.632;2023-02-17T06:17:46;99979.10;;;8.18;100.00
48888;BME280;42598;53.802;-1.632;2023-02-17T06:20:14;99990.14;;;8.20;100.00
48888;BME280;42598;53.802;-1.632;2023-02-17T06:22:42;99986.29;;;8.09;100.00
48888;BME280;42598;53.802;-1.632;2023-02-17T06:25:09;99967.44;;;8.12;100.00
48888;BME280;42598;53.802;-1.632;2023-02-17T06:27:36;99982.02;;;8.36;100.00
48888;BME280;42598;53.802;-1.632;2023-02-17T06:30:04;99975.92;;;8.28;100.00
48888;BME280;42598;53.802;-1.632;2023-02-17T06:32:31;99976.91;;;8.56;100.00
48888;BME280;42598;53.802;-1.632;2023-02-17T06:34:58;99984.83;;;8.19;100.00
48888;BME280;42598;53.802;-1.632;2023-02-17T06:37:25;100006.46;;;8.41;100.00
48888;BME280;42598;53.802;-1.632;2023-02-17T06:39:51;100011.72;;;8.40;100.00
48888;BME280;42598;53.802;-1.632;2023-02-17T06:42:18;99988.42;;;8.40;100.00
48888;BME280;42598;53.802;-1.632;2023-02-17T06:44:45;99981.44;;;8.49;100.00
48888;BME280;42598;53.802;-1.632;2023-02-17T06:47:12;99996.22;;;8.55;100.00
48888;BME280;42598;53.802;-1.632;2023-02-17T06:49:39;99986.86;;;8.60;100.00
48888;BME280;42598;53.802;-1.632;2023-02-17T06:52:06;99987.71;;;8.53;100.00
48888;BME280;42598;53.802;-1.632;2023-02-17T06:54:32;99975.01;;;8.48;100.00
48888;BME280;42598;53.802;-1.632;2023-02-17T06:56:59;99963.61;;;8.54;100.00
48888;BME280;42598;53.802;-1.632;2023-02-17T06:59:26;99950.06;;;8.51;100.00
48888;BME280;42598;53.802;-1.632;2023-02-17T07:01:54;99983.92;;;8.34;100.00
48888;BME280;42598;53.802;-1.632;2023-02-17T07:04:20;99964.01;;;8.37;100.00
48888;BME280;42598;53.802;-1.632;2023-02-17T07:06:47;99943.74;;;8.31;100.00
48888;BME280;42598;53.802;-1.632;2023-02-17T07:09:14;99974.16;;;8.41;100.00
48888;BME280;42598;53.802;-1.632;2023-02-17T07:11:41;99972.41;;;8.47;100.00
48888;BME280;42598;53.802;-1.632;2023-02-17T07:14:08;99964.95;;;8.55;100.00
48888;BME280;42598;53.802;-1.632;2023-02-17T07:16:35;99959.12;;;8.41;100.00
48888;BME280;42598;53.802;-1.632;2023-02-17T07:19:02;99974.56;;;8.48;100.00
48888;BME280;42598;53.802;-1.632;2023-02-17T07:21:28;99946.67;;;8.60;100.00
48888;BME280;42598;53.802;-1.632;2023-02-17T07:23:55;99962.69;;;8.38;100.00
48888;BME280;42598;53.802;-1.632;2023-02-17T07:26:22;99976.51;;;8.47;100.00
48888;BME280;42598;53.802;-1.632;2023-02-17T07:28:49;99960.00;;;8.11;100.00
48888;BME280;42598;53.802;-1.632;2023-02-17T07:31:16;99978.72;;;8.28;100.00
48888;BME280;42598;53.802;-1.632;2023-02-17T07:33:44;99969.88;;;8.59;100.00
48888;BME280;42598;53.802;-1.632;2023-02-17T07:36:13;99952.92;;;8.12;100.00
48888;BME280;42598;53.802;-1.632;2023-02-17T07:38:41;99977.50;;;8.58;100.00
48888;BME280;42598;53.802;-1.632;2023-02-17T07:41:11;99939.92;;;8.30;100.00
48888;BME280;42598;53.802;-1.632;2023-02-17T07:43:39;99959.25;;;8.11;100.00
48888;BME280;42598;53.802;-1.632;2023-02-17T07:46:07;99979.60;;;8.31;100.00
48888;BME280;42598;53.802;-1.632;2023-02-17T07:48:34;99953.17;;;8.37;100.00
48888;BME280;42598;53.802;-1.632;2023-02-17T07:51:04;99958.06;;;8.38;100.00
48888;BME280;42598;53.802;-1.632;2023-02-17T07:53:31;99969.88;;;8.28;100.00
48888;BME280;42598;53.802;-1.632;2023-02-17T07:56:00;99941.01;;;8.40;100.00
48888;BME280;42598;53.802;-1.632;2023-02-17T07:58:27;99959.29;;;8.39;100.00
48888;BME280;42598;53.802;-1.632;2023-02-17T08:00:54;99989.89;;;8.59;100.00
48888;BME280;42598;53.802;-1.632;2023-02-17T08:03:20;100012.31;;;8.56;100.00
48888;BME280;42598;53.802;-1.632;2023-02-17T08:05:47;100010.21;;;8.19;100.00
48888;BME280;42598;53.802;-1.632;2023-02-17T08:08:14;100004.60;;;8.30;100.00
48888;BME280;42598;53.802;-1.632;2023-02-17T08:10:41;100018.15;;;8.11;100.00
48888;BME280;42598;53.802;-1.632;2023-02-17T08:13:08;100006.82;;;8.15;100.00
48888;BME280;42598;53.802;-1.632;2023-02-17T08:15:37;100004.22;;;8.42;100.00
48888;BME280;42598;53.802;-1.632;2023-02-17T08:18:04;99997.10;;;8.24;100.00
48888;BME280;42598;53.802;-1.632;2023-02-17T08:20:30;100013.21;;;8.15;100.00
48888;BME280;42598;53.802;-1.632;2023-02-17T08:22:57;100017.59;;;8.43;100.00
48888;BME280;42598;53.802;-1.632;2023-02-17T08:25:24;100030.33;;;8.40;100.00
48888;BME280;42598;53.802;-1.632;2023-02-17T08:27:51;100029.76;;;8.00;100.00
48888;BME280;42598;53.802;-1.632;2023-02-17T08:30:18;100022.19;;;8.40;100.00
48888;BME280;42598;53.802;-1.632;2023-02-17T08:32:45;100046.96;;;8.54;100.00
48888;BME280;42598;53.802;-1.632;2023-02-17T08:35:12;100024.81;;;8.05;100.00
48888;BME280;42598;53.802;-1.632;2023-02-17T08:37:40;100028.90;;;8.01;100.00
48888;BME280;42598;53.802;-1.632;2023-02-17T08:40:08;100018.06;;;8.10;100.00
48888;BME280;42598;53.802;-1.632;2023-02-17T08:42:35;100032.81;;;8.14;100.00
48888;BME280;42598;53.802;-1.632;2023-02-17T08:45:02;100020.61;;;8.62;100.00
48888;BME280;42598;53.802;-1.632;2023-02-17T08:47:29;100032.96;;;8.46;100.00
48888;BME280;42598;53.802;-1.632;2023-02-17T08:49:56;100049.69;;;8.44;100.00
48888;BME280;42598;53.802;-1.632;2023-02-17T08:52:23;100073.98;;;8.89;100.00
48888;BME280;42598;53.802;-1.632;2023-02-17T08:54:50;100042.44;;;8.88;100.00
48888;BME280;42598;53.802;-1.632;2023-02-17T08:57:17;100050.94;;;8.73;100.00
48888;BME280;42598;53.802;-1.632;2023-02-17T08:59:45;100065.39;;;8.53;100.00
48888;BME280;42598;53.802;-1.632;2023-02-17T09:02:12;100055.13;;;8.68;100.00
48888;BME280;42598;53.802;-1.632;2023-02-17T09:04:39;100069.91;;;8.73;100.00
48888;BME280;42598;53.802;-1.632;2023-02-17T09:07:09;100026.41;;;8.98;100.00
48888;BME280;42598;53.802;-1.632;2023-02-17T09:09:37;100050.78;;;9.22;100.00
48888;BME280;42598;53.802;-1.632;2023-02-17T09:12:04;100055.15;;;8.76;100.00
48888;BME280;42598;53.802;-1.632;2023-02-17T09:14:31;100042.54;;;8.94;100.00
48888;BME280;42598;53.802;-1.632;2023-02-17T09:16:58;100064.81;;;8.39;100.00
48888;BME280;42598;53.802;-1.632;2023-02-17T09:19:25;100051.47;;;8.40;100.00
48888;BME280;42598;53.802;-1.632;2023-02-17T09:21:52;100065.61;;;8.36;100.00
48888;BME280;42598;53.802;-1.632;2023-02-17T09:24:19;100035.37;;;8.65;100.00
48888;BME280;42598;53.802;-1.632;2023-02-17T09:26:46;100044.24;;;8.45;100.00
48888;BME280;42598;53.802;-1.632;2023-02-17T09:29:13;100048.04;;;8.75;100.00
48888;BME280;42598;53.802;-1.632;2023-02-17T09:31:40;100050.47;;;8.54;100.00
48888;BME280;42598;53.802;-1.632;2023-02-17T09:34:08;100047.17;;;8.49;100.00
48888;BME280;42598;53.802;-1.632;2023-02-17T09:36:38;100068.33;;;8.33;100.00
48888;BME280;42598;53.802;-1.632;2023-02-17T09:39:06;100056.28;;;8.30;100.00
48888;BME280;42598;53.802;-1.632;2023-02-17T09:41:38;100069.63;;;8.31;100.00
48888;BME280;42598;53.802;-1.632;2023-02-17T09:44:15;100074.59;;;8.45;100.00
48888;BME280;42598;53.802;-1.632;2023-02-17T09:46:48;100102.60;;;8.21;100.00
48888;BME280;42598;53.802;-1.632;2023-02-17T09:49:25;100061.26;;;8.28;100.00
48888;BME280;42598;53.802;-1.632;2023-02-17T09:51:59;100131.96;;;8.23;100.00
48888;BME280;42598;53.802;-1.632;2023-02-17T09:54:33;100108.99;;;8.33;100.00
48888;BME280;42598;53.802;-1.632;2023-02-17T09:57:03;100139.34;;;8.15;100.00
48888;BME280;42598;53.802;-1.632;2023-02-17T09:59:37;100125.04;;;8.48;100.00
48888;BME280;42598;53.802;-1.632;2023-02-17T10:02:12;100120.25;;;8.39;100.00
48888;BME280;42598;53.802;-1.632;2023-02-17T10:04:43;100107.29;;;8.58;100.00
48888;BME280;42598;53.802;-1.632;2023-02-17T10:07:17;100194.16;;;8.33;100.00
48888;BME280;42598;53.802;-1.632;2023-02-17T10:09:50;100154.36;;;8.14;100.00
48888;BME280;42598;53.802;-1.632;2023-02-17T10:12:21;100169.65;;;8.10;100.00
48888;BME280;42598;53.802;-1.632;2023-02-17T10:14:52;100160.91;;;7.98;100.00
48888;BME280;42598;53.802;-1.632;2023-02-17T10:17:34;100208.40;;;8.06;100.00
48888;BME280;42598;53.802;-1.632;2023-02-17T10:20:05;100195.29;;;8.30;100.00
48888;BME280;42598;53.802;-1.632;2023-02-17T10:22:35;100189.27;;;8.78;100.00
48888;BME280;42598;53.802;-1.632;2023-02-17T10:25:14;100222.43;;;8.41;100.00
48888;BME280;42598;53.802;-1.632;2023-02-17T10:27:45;100224.36;;;8.44;100.00
48888;BME280;42598;53.802;-1.632;2023-02-17T10:30:25;100205.05;;;8.84;100.00
48888;BME280;42598;53.802;-1.632;2023-02-17T10:32:59;100225.08;;;9.53;100.00
48888;BME280;42598;53.802;-1.632;2023-02-17T10:35:44;100257.03;;;8.17;100.00
48888;BME280;42598;53.802;-1.632;2023-02-17T10:38:16;100255.39;;;7.65;100.00
48888;BME280;42598;53.802;-1.632;2023-02-17T10:40:46;100278.28;;;7.76;100.00
48888;BME280;42598;53.802;-1.632;2023-02-17T10:43:21;100280.04;;;7.95;100.00
48888;BME280;42598;53.802;-1.632;2023-02-17T10:45:50;100288.74;;;7.67;100.00
48888;BME280;42598;53.802;-1.632;2023-02-17T10:48:19;100320.40;;;7.31;100.00
48888;BME280;42598;53.802;-1.632;2023-02-17T10:50:48;100322.32;;;7.30;100.00
48888;BME280;42598;53.802;-1.632;2023-02-17T10:53:18;100331.01;;;7.42;100.00
48888;BME280;42598;53.802;-1.632;2023-02-17T10:55:53;100329.04;;;7.58;100.00
48888;BME280;42598;53.802;-1.632;2023-02-17T10:58:29;100330.59;;;7.43;100.00
48888;BME280;42598;53.802;-1.632;2023-02-17T11:00:58;100342.30;;;7.51;100.00
48888;BME280;42598;53.802;-1.632;2023-02-17T11:03:28;100352.14;;;7.16;100.00
48888;BME280;42598;53.802;-1.632;2023-02-17T11:05:58;100364.51;;;7.16;100.00
48888;BME280;42598;53.802;-1.632;2023-02-17T11:08:31;100373.78;;;7.35;100.00
48888;BME280;42598;53.802;-1.632;2023-02-17T11:11:01;100375.95;;;7.48;100.00
48888;BME280;42598;53.802;-1.632;2023-02-17T11:13:33;100384.45;;;7.53;100.00
48888;BME280;42598;53.802;-1.632;2023-02-17T11:16:01;100378.72;;;7.97;100.00
48888;BME280;42598;53.802;-1.632;2023-02-17T11:18:31;100390.94;;;8.41;100.00
48888;BME280;42598;53.802;-1.632;2023-02-17T11:21:01;100408.42;;;8.07;100.00
48888;BME280;42598;53.802;-1.632;2023-02-17T11:23:28;100402.14;;;7.39;100.00
48888;BME280;42598;53.802;-1.632;2023-02-17T11:25:58;100414.41;;;7.84;100.00
48888;BME280;42598;53.802;-1.632;2023-02-17T11:28:27;100415.16;;;7.66;100.00
48888;BME280;42598;53.802;-1.632;2023-02-17T11:30:57;100423.29;;;8.49;100.00
48888;BME280;42598;53.802;-1.632;2023-02-17T11:33:31;100434.97;;;8.68;100.00
48888;BME280;42598;53.802;-1.632;2023-02-17T11:35:59;100442.44;;;8.33;100.00
48888;BME280;42598;53.802;-1.632;2023-02-17T11:38:31;100460.69;;;8.65;100.00
48888;BME280;42598;53.802;-1.632;2023-02-17T11:40:59;100503.15;;;9.30;100.00
48888;BME280;42598;53.802;-1.632;2023-02-17T11:43:29;100493.58;;;9.96;100.00
48888;BME280;42598;53.802;-1.632;2023-02-17T11:46:05;100493.72;;;10.28;97.29
48888;BME280;42598;53.802;-1.632;2023-02-17T11:48:56;100520.78;;;10.37;96.08
48888;BME280;42598;53.802;-1.632;2023-02-17T11:51:30;100537.96;;;11.25;93.07
48888;BME280;42598;53.802;-1.632;2023-02-17T11:54:06;100556.93;;;10.86;91.74
48888;BME280;42598;53.802;-1.632;2023-02-17T11:56:37;100570.99;;;11.62;91.18
48888;BME280;42598;53.802;-1.632;2023-02-17T11:59:17;100593.01;;;10.54;93.36
48888;BME280;42598;53.802;-1.632;2023-02-17T12:02:01;100599.39;;;9.55;95.90
48888;BME280;42598;53.802;-1.632;2023-02-17T12:04:32;100613.08;;;10.63;93.61
48888;BME280;42598;53.802;-1.632;2023-02-17T12:07:15;100638.02;;;10.11;94.40
48888;BME280;42598;53.802;-1.632;2023-02-17T12:09:52;100638.36;;;10.70;93.43
48888;BME280;42598;53.802;-1.632;2023-02-17T12:12:32;100651.45;;;11.12;91.35
48888;BME280;42598;53.802;-1.632;2023-02-17T12:15:14;100668.89;;;10.65;87.14
48888;BME280;42598;53.802;-1.632;2023-02-17T12:17:56;100686.94;;;10.74;82.63
48888;BME280;42598;53.802;-1.632;2023-02-17T12:20:36;100692.11;;;11.01;79.56
48888;BME280;42598;53.802;-1.632;2023-02-17T12:23:14;100704.21;;;10.13;73.31
48888;BME280;42598;53.802;-1.632;2023-02-17T12:25:48;100714.15;;;10.08;68.94
48888;BME280;42598;53.802;-1.632;2023-02-17T12:28:37;100725.18;;;10.22;66.37
48888;BME280;42598;53.802;-1.632;2023-02-17T12:31:16;100716.30;;;11.63;60.90
48888;BME280;42598;53.802;-1.632;2023-02-17T12:33:56;100729.41;;;10.78;60.40
48888;BME280;42598;53.802;-1.632;2023-02-17T12:36:28;100722.71;;;12.28;57.39
48888;BME280;42598;53.802;-1.632;2023-02-17T12:38:59;100732.80;;;12.04;55.32
48888;BME280;42598;53.802;-1.632;2023-02-17T12:41:33;100737.97;;;11.79;55.95
48888;BME280;42598;53.802;-1.632;2023-02-17T12:44:06;100733.18;;;11.31;55.49
48888;BME280;42598;53.802;-1.632;2023-02-17T12:46:40;100734.26;;;11.98;54.07
48888;BME280;42598;53.802;-1.632;2023-02-17T12:49:11;100733.92;;;11.66;53.60
48888;BME280;42598;53.802;-1.632;2023-02-17T12:51:42;100727.63;;;11.72;53.83
48888;BME280;42598;53.802;-1.632;2023-02-17T12:54:16;100736.21;;;12.38;51.97
48888;BME280;42598;53.802;-1.632;2023-02-17T12:56:52;100736.01;;;11.71;53.45